Time;durP1;ratioP1;P1;durP2;ratioP2;P2;SDS_P1;SDS_P2;PMS_P1;PMS_P2;Temp;Humidity;BMP_temperature;BMP_pressure;BME280_temperature;BME280_humidity;BME280_pressure;Samples;Min_cycle;Max_cycle;Signal;HPM_P1;HPM_P2
2022/03/19 00:00:27;;;;;;;10.88;4.28;;;;;;;6.00;100.00;103418.44;4959845;28;20053;-58
2022/03/19 00:02:52;;;;;;;6.68;2.35;;;;;;;5.91;100.00;103414.50;4961223;28;20472;-58
2022/03/19 00:05:18;;;;;;;14.57;4.50;;;;;;;5.98;100.00;103415.88;4960312;28;20964;-54
2022/03/19 00:07:43;;;;;;;2.60;2.45;;;;;;;5.95;100.00;103410.81;4962612;28;20034;-56
2022/03/19 00:10:10;;;;;;;8.95;3.03;;;;;;;5.77;100.00;103410.03;4963438;28;20030;-58
2022/03/19 00:12:39;;;;;;;7.82;2.75;;;;;;;5.79;100.00;103421.34;4966650;28;20104;-57
2022/03/19 00:15:05;;;;;;;20.27;4.68;;;;;;;5.77;100.00;103420.56;4950596;28;20038;-59
2022/03/19 00:17:31;;;;;;;7.70;2.60;;;;;;;5.68;100.00;103421.13;4961520;28;20141;-54
2022/03/19 00:19:56;;;;;;;9.70;3.85;;;;;;;5.63;100.00;103420.53;4954627;28;20041;-53
2022/03/19 00:22:22;;;;;;;9.02;2.58;;;;;;;5.62;100.00;103424.09;4953279;28;20027;-56
2022/03/19 00:24:47;;;;;;;15.77;5.10;;;;;;;5.72;100.00;103425.25;4955464;28;20109;-58
2022/03/19 00:27:13;;;;;;;9.95;3.03;;;;;;;5.75;100.00;103426.88;4954597;28;20504;-53
2022/03/19 00:29:38;;;;;;;7.43;4.93;;;;;;;5.70;100.00;103424.50;4958856;28;20081;-56
2022/03/19 00:32:04;;;;;;;4.53;2.78;;;;;;;5.65;100.00;103434.44;4956575;28;20058;-58
2022/03/19 00:34:29;;;;;;;10.93;4.15;;;;;;;5.63;100.00;103428.44;4955538;28;21072;-57
2022/03/19 00:36:56;;;;;;;11.23;3.20;;;;;;;5.56;100.00;103424.44;4953013;28;20023;-56
2022/03/19 00:39:21;;;;;;;10.57;3.85;;;;;;;5.47;100.00;103431.03;4952036;28;20134;-54
2022/03/19 00:41:46;;;;;;;4.15;2.58;;;;;;;5.45;100.00;103431.16;4948753;28;20217;-55
2022/03/19 00:44:12;;;;;;;11.18;4.35;;;;;;;5.41;100.00;103429.59;4948724;28;20027;-59
2022/03/19 00:46:37;;;;;;;14.77;5.88;;;;;;;5.36;100.00;103429.00;4947201;28;20389;-57
2022/03/19 00:49:02;;;;;;;13.27;4.90;;;;;;;5.41;100.00;103424.34;4951108;28;20106;-54
2022/03/19 00:51:28;;;;;;;17.27;5.50;;;;;;;5.45;100.00;103412.72;4950616;28;20477;-56
2022/03/19 00:53:53;;;;;;;9.60;4.60;;;;;;;5.49;100.00;103409.91;4950508;28;20492;-53
2022/03/19 00:56:18;;;;;;;20.33;6.80;;;;;;;5.52;100.00;103412.38;4961520;28;20078;-58
2022/03/19 00:58:44;;;;;;;11.43;5.07;;;;;;;5.54;100.00;103413.13;4951163;28;20054;-59
2022/03/19 01:01:09;;;;;;;7.15;5.13;;;;;;;5.61;100.00;103404.81;4949661;28;20035;-56
2022/03/19 01:03:35;;;;;;;7.80;4.55;;;;;;;5.53;100.00;103404.41;4945816;28;20046;-57
2022/03/19 01:06:00;;;;;;;15.85;4.72;;;;;;;5.38;100.00;103395.56;4948926;28;20050;-51
2022/03/19 01:08:25;;;;;;;15.50;3.70;;;;;;;5.36;100.00;103402.69;4951788;28;20035;-52
2022/03/19 01:10:52;;;;;;;14.93;5.20;;;;;;;5.33;100.00;103397.63;4948430;28;20288;-55
2022/03/19 01:13:17;;;;;;;13.23;5.35;;;;;;;5.27;100.00;103403.22;4948354;28;20034;-54
2022/03/19 01:15:43;;;;;;;22.73;5.97;;;;;;;5.29;100.00;103395.22;4946338;28;20079;-58
2022/03/19 01:18:08;;;;;;;12.98;5.53;;;;;;;5.41;100.00;103394.56;4950238;28;20085;-57
2022/03/19 01:20:34;;;;;;;16.25;5.75;;;;;;;5.36;100.00;103383.44;4953409;28;20034;-56
2022/03/19 01:23:00;;;;;;;11.60;4.85;;;;;;;5.34;100.00;103383.50;4961655;28;20077;-53
2022/03/19 01:25:25;;;;;;;20.38;5.90;;;;;;;5.30;100.00;103378.53;4950914;28;20033;-53
2022/03/19 01:27:51;;;;;;;12.48;5.70;;;;;;;5.36;100.00;103383.44;4955649;28;20097;-51
2022/03/19 01:30:18;;;;;;;19.98;8.20;;;;;;;5.45;100.00;103375.03;4958507;28;20046;-56
2022/03/19 01:32:44;;;;;;;17.38;5.18;;;;;;;5.43;100.00;103372.47;4961792;28;20027;-57
2022/03/19 01:35:10;;;;;;;5.78;4.38;;;;;;;5.43;100.00;103369.84;4951303;28;20034;-55
2022/03/19 01:37:37;;;;;;;20.48;6.30;;;;;;;5.33;100.00;103363.41;4958305;28;20101;-56
2022/03/19 01:40:03;;;;;;;9.93;3.97;;;;;;;5.32;100.00;103364.34;4958305;28;20148;-51
2022/03/19 01:42:31;;;;;;;18.65;4.60;;;;;;;5.25;100.00;103360.38;4964087;28;20037;-53
2022/03/19 01:44:58;;;;;;;16.90;7.78;;;;;;;5.17;100.00;103349.44;4951419;28;20030;-57
2022/03/19 01:47:25;;;;;;;14.73;5.32;;;;;;;5.21;100.00;103362.34;4954309;28;20054;-57
2022/03/19 01:49:50;;;;;;;13.27;4.90;;;;;;;5.18;100.00;103359.84;4954591;28;20050;-56
2022/03/19 01:52:16;;;;;;;13.55;4.97;;;;;;;5.23;100.00;103343.81;4959562;28;20031;-57
2022/03/19 01:54:48;;;;;;;14.50;5.85;;;;;;;5.18;100.00;103351.09;4960131;28;20027;-58
2022/03/19 01:57:17;;;;;;;8.98;5.05;;;;;;;5.13;100.00;103340.84;4954784;28;20122;-54
2022/03/19 01:59:43;;;;;;;9.65;5.90;;;;;;;5.07;100.00;103342.97;4960414;28;20104;-57
2022/03/19 02:02:10;;;;;;;8.85;4.60;;;;;;;5.14;100.00;103341.72;4962349;28;20027;-58
2022/03/19 02:04:37;;;;;;;10.68;5.47;;;;;;;5.13;100.00;103332.09;4963447;28;20047;-57
2022/03/19 02:07:05;;;;;;;17.52;5.32;;;;;;;5.17;100.00;103331.84;4957657;28;20046;-57
2022/03/19 02:09:30;;;;;;;14.32;6.15;;;;;;;5.32;100.00;103327.53;4957283;28;20040;-58
2022/03/19 02:11:56;;;;;;;19.25;6.43;;;;;;;5.46;100.00;103324.09;4956593;28;20050;-58
2022/03/19 02:14:21;;;;;;;11.82;5.70;;;;;;;5.55;100.00;103313.06;4952005;28;20113;-57
2022/03/19 02:16:47;;;;;;;8.38;5.03;;;;;;;5.54;100.00;103307.88;4947599;28;20039;-57
2022/03/19 02:19:13;;;;;;;17.80;5.65;;;;;;;5.37;100.00;103314.06;4953496;28;20044;-56
2022/03/19 02:21:45;;;;;;;15.13;6.25;;;;;;;5.41;100.00;103320.88;4954143;28;20031;-58
2022/03/19 02:26:56;;;;;;;9.52;4.60;;;;;;;5.55;100.00;103307.78;4953775;28;20054;-59
2022/03/19 02:29:22;;;;;;;8.40;3.85;;;;;;;5.43;100.00;103303.22;4952799;28;20027;-55
2022/03/19 02:31:49;;;;;;;14.82;5.93;;;;;;;5.33;100.00;103302.91;4957968;28;20500;-56
2022/03/19 02:34:15;;;;;;;19.10;6.18;;;;;;;5.40;100.00;103306.88;4949083;28;20439;-57
2022/03/19 02:36:41;;;;;;;12.10;5.38;;;;;;;5.39;100.00;103301.69;4963235;28;20035;-57
2022/03/19 02:39:19;;;;;;;17.58;7.22;;;;;;;5.43;100.00;103293.53;4954902;28;20165;-56
2022/03/19 02:41:49;;;;;;;10.20;6.03;;;;;;;5.41;100.00;103287.50;4956976;28;20050;-59
2022/03/19 02:44:16;;;;;;;11.97;5.53;;;;;;;5.32;100.00;103285.44;4953518;28;20126;-53
2022/03/19 02:46:44;;;;;;;12.68;4.95;;;;;;;5.25;100.00;103284.06;4956494;28;20443;-56
2022/03/19 02:49:10;;;;;;;19.67;7.05;;;;;;;5.05;100.00;103287.81;4962019;28;20038;-56
2022/03/19 02:51:36;;;;;;;13.20;5.10;;;;;;;5.04;100.00;103286.13;4963007;28;20026;-59
2022/03/19 02:54:08;;;;;;;15.52;5.00;;;;;;;5.02;100.00;103285.38;4958738;28;20122;-51
2022/03/19 02:56:35;;;;;;;15.73;5.80;;;;;;;5.11;100.00;103282.25;4955509;28;20077;-57
2022/03/19 02:59:12;;;;;;;14.88;5.70;;;;;;;5.24;100.00;103277.13;4957923;28;20049;-55
2022/03/19 03:01:39;;;;;;;20.23;7.00;;;;;;;5.32;100.00;103264.38;4962971;28;20051;-58
2022/03/19 03:04:04;;;;;;;9.27;6.03;;;;;;;5.30;100.00;103262.78;4954728;28;20039;-59
2022/03/19 03:06:36;;;;;;;8.70;4.43;;;;;;;5.26;100.00;103256.81;4955657;28;20054;-59
2022/03/19 03:09:03;;;;;;;13.20;5.70;;;;;;;5.28;100.00;103268.09;4960380;28;20030;-56
2022/03/19 03:11:28;;;;;;;15.07;7.32;;;;;;;5.26;100.00;103267.34;4956545;28;20035;-59
2022/03/19 03:13:54;;;;;;;17.48;7.07;;;;;;;5.25;100.00;103258.59;4965796;28;20043;-57
2022/03/19 03:16:19;;;;;;;20.08;6.03;;;;;;;5.26;100.00;103251.56;4953814;28;20427;-55
2022/03/19 03:18:45;;;;;;;15.98;6.05;;;;;;;5.19;100.00;103253.72;4958215;28;20039;-59
2022/03/19 03:21:11;;;;;;;10.63;5.15;;;;;;;5.23;100.00;103251.75;4957362;28;20035;-58
2022/03/19 03:23:36;;;;;;;10.43;6.18;;;;;;;5.17;100.00;103250.31;4955280;28;20031;-59
2022/03/19 03:26:02;;;;;;;19.17;5.85;;;;;;;5.21;100.00;103253.59;4954040;28;20589;-54
2022/03/19 03:28:27;;;;;;;14.98;7.55;;;;;;;5.14;100.00;103239.13;4954494;28;20043;-58
2022/03/19 03:30:53;;;;;;;12.13;5.55;;;;;;;5.00;100.00;103248.63;4959869;28;20078;-56
2022/03/19 03:33:18;;;;;;;15.23;5.47;;;;;;;4.95;100.00;103240.16;4964457;28;20097;-58
2022/03/19 03:35:43;;;;;;;11.77;5.93;;;;;;;4.97;100.00;103242.72;4951368;28;20023;-58
2022/03/19 03:38:09;;;;;;;8.70;5.70;;;;;;;4.95;100.00;103241.94;4961214;28;20042;-55
2022/03/19 03:40:34;;;;;;;18.00;6.90;;;;;;;4.96;100.00;103248.91;4960952;28;20089;-60
2022/03/19 03:42:59;;;;;;;14.25;5.75;;;;;;;5.11;100.00;103239.28;4964209;28;20047;-59
2022/03/19 03:45:29;;;;;;;14.40;6.40;;;;;;;5.17;100.00;103245.06;4949737;28;20098;-57
2022/03/19 03:47:54;;;;;;;17.80;6.28;;;;;;;5.08;100.00;103242.09;4955370;28;20535;-54
2022/03/19 03:50:20;;;;;;;11.57;6.80;;;;;;;4.91;100.00;103249.16;4959280;28;20039;-56
2022/03/19 03:52:45;;;;;;;11.80;6.15;;;;;;;4.82;100.00;103242.63;4963639;28;20027;-57
2022/03/19 03:55:11;;;;;;;11.30;5.63;;;;;;;4.81;100.00;103240.94;4952788;28;20532;-54
2022/03/19 03:57:38;;;;;;;16.63;6.60;;;;;;;4.78;100.00;103243.75;4952143;28;20424;-57
2022/03/19 04:00:05;;;;;;;13.15;5.80;;;;;;;4.74;100.00;103239.59;4954717;28;20081;-56
2022/03/19 04:02:31;;;;;;;18.25;5.93;;;;;;;4.83;100.00;103240.88;4963519;28;20073;-52
2022/03/19 04:04:57;;;;;;;13.90;5.63;;;;;;;4.89;100.00;103235.25;4953367;28;20038;-54
2022/03/19 04:07:23;;;;;;;13.55;5.75;;;;;;;4.72;100.00;103232.72;4959125;28;20034;-51
2022/03/19 04:09:49;;;;;;;15.02;6.03;;;;;;;4.64;100.00;103238.38;4957089;28;20054;-55
2022/03/19 04:12:15;;;;;;;9.70;5.28;;;;;;;4.61;100.00;103237.72;4965368;28;20524;-53
2022/03/19 04:14:40;;;;;;;16.15;6.68;;;;;;;4.59;100.00;103240.44;4956033;28;20042;-58
2022/03/19 04:17:06;;;;;;;19.20;5.82;;;;;;;4.66;100.00;103235.69;4952385;28;20473;-53
2022/03/19 04:19:32;;;;;;;12.95;5.78;;;;;;;4.74;100.00;103241.38;4955985;28;20118;-55
2022/03/19 04:21:57;;;;;;;14.13;7.18;;;;;;;4.79;100.00;103234.06;4961047;28;20034;-53
2022/03/19 04:24:22;;;;;;;12.00;6.00;;;;;;;4.67;100.00;103234.75;4961204;28;20035;-54
2022/03/19 04:26:48;;;;;;;16.92;9.05;;;;;;;4.57;100.00;103224.75;4952807;28;20027;-57
2022/03/19 04:29:13;;;;;;;20.08;7.40;;;;;;;4.74;100.00;103230.84;4954797;28;20046;-57
2022/03/19 04:31:39;;;;;;;16.83;6.45;;;;;;;4.69;100.00;103225.00;4959925;28;20383;-58
2022/03/19 04:34:04;;;;;;;9.35;5.13;;;;;;;4.51;100.00;103217.19;4956238;28;20500;-58
2022/03/19 04:36:30;;;;;;;10.13;6.07;;;;;;;4.37;100.00;103225.00;4961826;28;20077;-57
2022/03/19 04:39:00;;;;;;;11.20;5.30;;;;;;;4.21;100.00;103225.00;4962974;28;20904;-58
2022/03/19 04:41:26;;;;;;;11.02;5.75;;;;;;;4.15;100.00;103231.38;4958508;28;20034;-60
2022/03/19 04:43:51;;;;;;;17.50;6.57;;;;;;;4.19;100.00;103218.97;4964645;28;20031;-57
2022/03/19 04:46:17;;;;;;;17.38;6.50;;;;;;;4.32;100.00;103221.78;4961974;28;20034;-56
2022/03/19 04:48:45;;;;;;;10.07;7.07;;;;;;;4.41;100.00;103215.16;4954419;28;20030;-60
2022/03/19 04:51:14;;;;;;;11.90;5.10;;;;;;;4.44;100.00;103226.38;4958214;28;20443;-59
2022/03/19 04:53:40;;;;;;;16.05;7.00;;;;;;;4.37;100.00;103214.50;4956437;28;20032;-57
2022/03/19 04:56:06;;;;;;;13.10;7.10;;;;;;;4.28;100.00;103218.44;4959189;28;20465;-58
2022/03/19 04:58:36;;;;;;;16.38;6.25;;;;;;;4.34;100.00;103212.88;4953670;28;20030;-57
2022/03/19 05:01:02;;;;;;;13.85;5.45;;;;;;;4.43;100.00;103215.94;4958811;28;20033;-58
2022/03/19 05:03:27;;;;;;;12.50;5.85;;;;;;;4.47;100.00;103218.31;4954067;28;20039;-57
2022/03/19 05:05:53;;;;;;;14.25;6.90;;;;;;;4.44;100.00;103212.34;4950416;28;20058;-58
2022/03/19 05:08:18;;;;;;;18.38;7.30;;;;;;;4.45;100.00;103207.03;4952319;28;20101;-56
2022/03/19 05:13:28;;;;;;;19.77;7.20;;;;;;;4.29;100.00;103209.66;4953349;28;20118;-58
2022/03/19 05:15:54;;;;;;;9.93;6.65;;;;;;;4.19;100.00;103207.63;4949318;28;20114;-57
2022/03/19 05:18:19;;;;;;;17.77;7.50;;;;;;;4.27;100.00;103208.88;4958298;28;20396;-57
2022/03/19 05:20:45;;;;;;;14.15;7.07;;;;;;;4.29;100.00;103206.19;4958917;28;20070;-58
2022/03/19 05:23:11;;;;;;;26.20;6.55;;;;;;;4.24;100.00;103202.97;4955501;28;20039;-56
2022/03/19 05:25:36;;;;;;;15.98;8.88;;;;;;;4.25;100.00;103202.88;4949038;28;20134;-56
2022/03/19 05:28:02;;;;;;;14.27;7.28;;;;;;;4.20;100.00;103204.03;4954950;28;20035;-55
2022/03/19 05:30:28;;;;;;;18.58;6.68;;;;;;;4.11;100.00;103206.25;4959380;28;20038;-56
2022/03/19 05:32:54;;;;;;;11.20;6.20;;;;;;;4.18;100.00;103216.41;4957734;28;20031;-54
2022/03/19 05:35:21;;;;;;;18.55;7.40;;;;;;;4.37;100.00;103201.34;4947723;28;20099;-56
2022/03/19 05:37:47;;;;;;;15.05;7.82;;;;;;;4.35;100.00;103208.47;4957475;28;20122;-56
2022/03/19 05:40:13;;;;;;;16.63;7.57;;;;;;;4.27;100.00;103197.53;4956212;28;20467;-56
2022/03/19 05:42:38;;;;;;;14.82;6.88;;;;;;;4.25;100.00;103200.22;4953218;28;20505;-59
2022/03/19 05:45:04;;;;;;;8.70;5.85;;;;;;;4.17;100.00;103194.56;4948301;28;20114;-58
2022/03/19 05:47:30;;;;;;;11.07;6.90;;;;;;;4.22;100.00;103196.94;4950330;28;20126;-59
2022/03/19 05:49:55;;;;;;;14.50;6.22;;;;;;;4.15;100.00;103202.50;4958846;28;20042;-58
2022/03/19 05:52:20;;;;;;;12.05;6.25;;;;;;;4.07;100.00;103188.09;4962946;28;20035;-58
2022/03/19 05:54:46;;;;;;;12.50;6.63;;;;;;;4.11;100.00;103195.75;4950019;28;20039;-54
2022/03/19 05:57:11;;;;;;;13.73;7.82;;;;;;;4.11;100.00;103187.88;4949089;28;20094;-55
2022/03/19 05:59:36;;;;;;;11.13;5.88;;;;;;;4.15;100.00;103189.38;4956315;28;20070;-59
2022/03/19 06:02:05;;;;;;;14.32;9.45;;;;;;;4.17;100.00;103191.94;4956640;28;20118;-56
2022/03/19 06:04:31;;;;;;;12.98;6.80;;;;;;;4.06;100.00;103189.03;4950788;28;20035;-58
2022/03/19 06:06:56;;;;;;;13.85;7.72;;;;;;;3.96;100.00;103190.47;4954143;28;20097;-57
2022/03/19 06:09:22;;;;;;;11.45;6.97;;;;;;;3.95;100.00;103189.63;4954423;28;20135;-54
2022/03/19 06:11:47;;;;;;;16.20;6.90;;;;;;;4.04;100.00;103191.75;4959822;28;20059;-57
2022/03/19 06:14:13;;;;;;;17.08;7.05;;;;;;;4.08;100.00;103182.78;4950864;28;20027;-59
2022/03/19 06:16:38;;;;;;;16.38;7.35;;;;;;;4.01;100.00;103183.19;4953188;28;20039;-55
2022/03/19 06:19:03;;;;;;;20.70;9.77;;;;;;;3.98;100.00;103184.19;4959910;28;20412;-57
2022/03/19 06:21:29;;;;;;;18.42;6.90;;;;;;;4.12;100.00;103186.91;4965691;28;20045;-56
2022/03/19 06:23:55;;;;;;;18.42;7.85;;;;;;;4.12;100.00;103180.81;4959697;28;20041;-56
2022/03/19 06:26:23;;;;;;;12.82;8.20;;;;;;;4.13;100.00;103187.75;4965264;28;20120;-53
2022/03/19 06:28:48;;;;;;;12.13;6.60;;;;;;;4.15;100.00;103183.28;4963162;28;20049;-55
2022/03/19 06:31:14;;;;;;;10.05;5.65;;;;;;;4.13;100.00;103193.00;4954995;28;20035;-56
2022/03/19 06:33:41;;;;;;;13.95;7.28;;;;;;;4.12;100.00;103197.41;4972124;28;20027;-54
2022/03/19 06:38:51;;;;;;;37.47;7.88;;;;;;;4.37;100.00;103191.69;4965712;28;20584;-57
2022/03/19 06:41:16;;;;;;;22.65;8.75;;;;;;;4.39;100.00;103194.25;4966939;28;20122;-56
2022/03/19 06:43:43;;;;;;;11.82;6.57;;;;;;;4.33;100.00;103190.16;4955988;28;20043;-55
2022/03/19 06:46:09;;;;;;;18.25;8.40;;;;;;;4.28;100.00;103188.72;4954735;28;20396;-55
2022/03/19 06:48:35;;;;;;;14.30;7.70;;;;;;;4.32;100.00;103198.97;4958667;28;20037;-55
2022/03/19 06:51:00;;;;;;;15.95;6.88;;;;;;;4.30;100.00;103194.75;4965052;28;20418;-57
2022/03/19 06:53:26;;;;;;;15.95;6.72;;;;;;;4.27;100.00;103194.91;4963259;28;20058;-56
2022/03/19 06:55:52;;;;;;;12.02;6.05;;;;;;;4.28;100.00;103196.59;4952113;28;20438;-56
2022/03/19 06:58:21;;;;;;;19.58;7.65;;;;;;;4.46;100.00;103194.75;4952809;28;20052;-58
2022/03/19 07:00:46;;;;;;;18.27;7.13;;;;;;;4.47;100.00;103186.78;4953630;28;20027;-56
2022/03/19 07:03:12;;;;;;;10.93;6.35;;;;;;;4.50;100.00;103186.63;4958673;28;20212;-59
2022/03/19 07:05:38;;;;;;;16.60;8.18;;;;;;;4.65;100.00;103174.41;4949570;28;20035;-57
2022/03/19 07:08:07;;;;;;;12.13;6.88;;;;;;;4.57;100.00;103171.38;4953695;28;20622;-58
2022/03/19 07:10:36;;;;;;;13.15;7.50;;;;;;;4.51;100.00;103172.53;4953617;28;20035;-57
2022/03/19 07:13:03;;;;;;;13.00;6.78;;;;;;;4.52;100.00;103178.66;4953924;28;20043;-58
2022/03/19 07:15:29;;;;;;;20.20;6.50;;;;;;;4.56;100.00;103175.75;4954046;28;20631;-60
2022/03/19 07:17:55;;;;;;;14.15;5.95;;;;;;;4.68;100.00;103170.75;4958851;28;20042;-58
2022/03/19 07:20:21;;;;;;;20.70;6.57;;;;;;;4.69;100.00;103164.56;4960195;28;20504;-54
2022/03/19 07:22:55;;;;;;;17.08;6.13;;;;;;;4.79;100.00;103163.09;4958774;28;20031;-59
2022/03/19 07:25:24;;;;;;;11.73;6.85;;;;;;;4.94;100.00;103156.97;4954903;28;20027;-58
2022/03/19 07:27:51;;;;;;;29.85;9.10;;;;;;;4.91;100.00;103154.50;4960367;28;20042;-58
2022/03/19 07:30:16;;;;;;;16.38;6.22;;;;;;;5.06;100.00;103151.91;4955473;28;20773;-56
2022/03/19 07:32:42;;;;;;;19.25;6.85;;;;;;;5.12;100.00;103154.19;4950454;28;20058;-59
2022/03/19 07:35:09;;;;;;;14.73;5.80;;;;;;;5.14;100.00;103150.53;4948739;28;20655;-56
2022/03/19 07:37:37;;;;;;;15.27;6.03;;;;;;;5.30;100.00;103142.59;4958079;28;20019;-58
2022/03/19 07:40:04;;;;;;;20.27;6.03;;;;;;;5.35;100.00;103140.53;4959295;28;20027;-57
2022/03/19 07:42:30;;;;;;;16.73;4.88;;;;;;;5.37;100.00;103138.66;4950334;28;20077;-57
2022/03/19 07:44:55;;;;;;;17.92;5.45;;;;;;;5.44;100.00;103126.81;4956705;28;20055;-59
2022/03/19 07:47:21;;;;;;;10.60;6.03;;;;;;;5.46;100.00;103135.47;4960358;28;20027;-56
2022/03/19 07:49:46;;;;;;;8.93;4.35;;;;;;;5.60;100.00;103131.13;4955370;28;20042;-53
2022/03/19 07:52:12;;;;;;;12.65;4.45;;;;;;;5.71;100.00;103122.63;4950667;28;20027;-60
2022/03/19 07:54:37;;;;;;;20.25;4.82;;;;;;;5.86;100.00;103113.72;4952752;28;20037;-57
2022/03/19 07:57:04;;;;;;;14.60;7.15;;;;;;;5.96;100.00;103117.50;4960171;28;20042;-54
2022/03/19 07:59:29;;;;;;;5.03;4.07;;;;;;;6.01;100.00;103119.88;4957270;28;20049;-58
2022/03/19 08:01:55;;;;;;;9.88;4.07;;;;;;;6.14;100.00;103117.31;4956583;28;20027;-58
2022/03/19 08:04:20;;;;;;;11.50;6.22;;;;;;;6.46;100.00;103120.53;4955125;28;20113;-53
2022/03/19 08:06:46;;;;;;;18.63;6.15;;;;;;;6.80;100.00;103107.75;4957132;28;20045;-55
2022/03/19 08:09:12;;;;;;;9.63;5.30;;;;;;;6.81;100.00;103110.28;4953683;28;20106;-58
2022/03/19 08:11:39;;;;;;;11.95;5.00;;;;;;;6.83;100.00;103103.13;4958116;28;20058;-58
2022/03/19 08:14:05;;;;;;;12.45;5.85;;;;;;;6.91;100.00;103099.97;4964165;28;20035;-56
2022/03/19 08:16:30;;;;;;;7.97;4.18;;;;;;;6.97;100.00;103099.56;4964787;28;20088;-57
2022/03/19 08:18:56;;;;;;;7.53;5.05;;;;;;;7.03;100.00;103099.16;4956823;28;20035;-58
2022/03/19 08:21:21;;;;;;;7.97;4.28;;;;;;;7.13;100.00;103097.56;4950554;28;20507;-57
2022/03/19 08:23:47;;;;;;;10.48;4.53;;;;;;;7.31;100.00;103102.56;4951579;28;20050;-58
2022/03/19 08:26:13;;;;;;;14.18;4.93;;;;;;;7.43;100.00;103104.31;4951979;28;20034;-57
2022/03/19 08:28:38;;;;;;;10.15;4.78;;;;;;;7.50;100.00;103102.94;4949243;28;20035;-57
2022/03/19 08:31:04;;;;;;;6.88;4.07;;;;;;;7.62;100.00;103096.81;4956546;28;20031;-58
2022/03/19 08:33:29;;;;;;;14.00;5.43;;;;;;;7.76;100.00;103098.47;4954795;28;20035;-60
2022/03/19 08:35:55;;;;;;;7.18;3.33;;;;;;;7.87;100.00;103100.34;4953253;28;20031;-59
2022/03/19 08:41:04;;;;;;;5.82;3.70;;;;;;;8.05;100.00;103083.22;4956897;28;20842;-59
2022/03/19 08:43:30;;;;;;;9.88;3.95;;;;;;;8.20;100.00;103083.88;4951856;28;20034;-59
2022/03/19 08:45:55;;;;;;;14.43;3.95;;;;;;;8.34;100.00;103079.38;4949421;28;20066;-60
2022/03/19 08:48:21;;;;;;;7.53;3.85;;;;;;;8.76;100.00;103077.19;4948205;28;20039;-62
2022/03/19 08:50:46;;;;;;;10.10;4.53;;;;;;;9.12;100.00;103068.25;4950870;28;20378;-59
2022/03/19 08:53:16;;;;;;;18.23;5.32;;;;;;;9.55;100.00;103070.16;4960727;28;20042;-62
2022/03/19 08:55:41;;;;;;;10.95;4.18;;;;;;;9.27;100.00;103060.94;4959861;28;20034;-61
2022/03/19 08:58:07;;;;;;;11.82;4.65;;;;;;;9.18;100.00;103067.75;4961822;28;20413;-61
2022/03/19 09:00:33;;;;;;;8.23;3.80;;;;;;;9.14;100.00;103059.22;4955212;28;20034;-60
2022/03/19 09:02:58;;;;;;;9.73;4.22;;;;;;;9.17;100.00;103051.03;4957214;28;20116;-60
2022/03/19 09:05:27;;;;;;;12.38;3.50;;;;;;;9.19;100.00;103053.59;4959202;28;20034;-59
2022/03/19 09:07:52;;;;;;;8.15;4.68;;;;;;;9.25;100.00;103052.25;4953691;28;20046;-58
2022/03/19 09:10:18;;;;;;;12.68;5.00;;;;;;;9.33;100.00;103055.13;4951714;28;20031;-58
2022/03/19 09:12:43;;;;;;;12.07;4.40;;;;;;;9.44;100.00;103046.34;4951442;28;20051;-59
2022/03/19 09:15:11;;;;;;;5.75;4.47;;;;;;;9.63;100.00;103051.03;4951699;28;20122;-59
2022/03/19 09:17:37;;;;;;;12.82;4.22;;;;;;;9.77;100.00;103035.72;4954028;28;20390;-60
2022/03/19 09:20:03;;;;;;;12.35;4.35;;;;;;;9.90;100.00;103043.53;4956552;28;20441;-61
2022/03/19 09:22:30;;;;;;;8.00;4.47;;;;;;;10.00;100.00;103033.03;4953144;28;20093;-56
2022/03/19 09:24:55;;;;;;;9.73;3.53;;;;;;;10.03;100.00;103032.75;4957157;28;20467;-62
2022/03/19 09:27:21;;;;;;;12.57;3.97;;;;;;;10.05;100.00;103031.69;4954190;28;20030;-60
2022/03/19 09:29:47;;;;;;;10.63;4.15;;;;;;;10.13;100.00;103027.56;4948199;28;20465;-55
2022/03/19 09:32:12;;;;;;;6.28;4.60;;;;;;;10.28;100.00;103021.03;4956647;28;20081;-62
2022/03/19 09:34:38;;;;;;;6.75;3.83;;;;;;;10.41;100.00;103015.56;4948610;28;20114;-59
2022/03/19 09:37:03;;;;;;;13.15;4.35;;;;;;;10.52;100.00;103022.59;4957266;28;20077;-61
2022/03/19 09:39:29;;;;;;;7.80;3.83;;;;;;;10.55;100.00;103017.88;4951387;28;20062;-59
2022/03/19 09:41:55;;;;;;;10.40;4.60;;;;;;;10.63;100.00;103018.06;4949552;28;20435;-61
2022/03/19 09:44:24;;;;;;;9.45;4.07;;;;;;;10.75;100.00;103020.66;4954243;28;20041;-54
2022/03/19 09:46:49;;;;;;;8.65;3.60;;;;;;;10.84;100.00;103028.69;4957917;28;20484;-59
2022/03/19 09:49:15;;;;;;;18.65;4.68;;;;;;;10.89;100.00;103025.63;4962777;28;20233;-55
2022/03/19 09:51:44;;;;;;;8.80;4.18;;;;;;;10.91;100.00;103023.69;4957588;28;20031;-59
2022/03/19 09:54:11;;;;;;;8.05;4.32;;;;;;;11.10;100.00;103017.63;4956971;28;20031;-59
2022/03/19 09:56:37;;;;;;;9.45;3.60;;;;;;;11.23;100.00;103005.00;4956727;28;20435;-61
2022/03/19 09:59:02;;;;;;;11.43;3.85;;;;;;;11.40;100.00;103011.47;4957604;28;20039;-58
2022/03/19 10:01:31;;;;;;;7.20;4.07;;;;;;;11.50;100.00;102996.41;4954632;28;20030;-56
2022/03/19 10:04:01;;;;;;;11.27;5.25;;;;;;;11.58;100.00;103016.97;4957312;28;20511;-61
2022/03/19 10:09:17;;;;;;;5.70;3.22;;;;;;;11.83;100.00;102997.03;4960063;28;20046;-58
2022/03/19 10:11:47;;;;;;;11.35;4.55;;;;;;;11.87;100.00;103009.09;4950740;28;20035;-60
2022/03/19 10:14:19;;;;;;;8.75;4.25;;;;;;;11.90;100.00;102976.06;4956945;28;20026;-60
2022/03/19 10:16:49;;;;;;;8.18;5.22;;;;;;;11.93;100.00;102983.78;4948641;28;20098;-62
2022/03/19 10:19:15;;;;;;;8.77;3.35;;;;;;;12.05;100.00;102977.34;4956803;28;20039;-62
2022/03/19 10:21:41;;;;;;;7.05;3.63;;;;;;;12.27;100.00;102970.06;4951014;28;20046;-63
2022/03/19 10:24:08;;;;;;;4.32;2.88;;;;;;;12.37;100.00;102981.53;4948239;28;20037;-63
2022/03/19 10:26:37;;;;;;;9.45;3.45;;;;;;;12.40;100.00;102979.41;4955284;28;20536;-61
2022/03/19 10:29:09;;;;;;;6.93;4.05;;;;;;;12.48;100.00;102972.56;4958997;28;20169;-60
2022/03/19 10:31:40;;;;;;;10.15;4.43;;;;;;;12.61;100.00;102973.09;4950893;28;20054;-57
2022/03/19 10:34:07;;;;;;;12.52;3.38;;;;;;;12.60;100.00;102971.41;4946151;28;20427;-63
2022/03/19 10:36:36;;;;;;;7.60;3.78;;;;;;;12.63;100.00;102966.63;4954444;28;20045;-62
2022/03/19 10:39:10;;;;;;;12.85;3.92;;;;;;;12.81;100.00;102979.22;4955221;28;20035;-58
2022/03/19 10:41:36;;;;;;;6.95;3.83;;;;;;;12.84;100.00;102965.59;4953281;28;20552;-58
2022/03/19 10:44:19;;;;;;;8.95;3.47;;;;;;;12.81;100.00;102964.06;4956467;28;20034;-59
2022/03/19 10:47:11;;;;;;;6.25;3.83;;;;;;;12.95;95.46;102960.09;4959956;28;20041;-59
2022/03/19 10:49:36;;;;;;;7.00;3.10;;;;;;;13.01;85.30;102945.34;4956515;28;20043;-58
2022/03/19 10:52:02;;;;;;;5.47;3.30;;;;;;;13.17;95.05;102948.22;4952387;28;20404;-57
2022/03/19 10:54:29;;;;;;;8.88;4.35;;;;;;;13.22;94.51;102945.94;4947964;28;20035;-62
2022/03/19 10:56:54;;;;;;;8.85;3.05;;;;;;;13.35;97.84;102952.78;4953991;28;20058;-60
2022/03/19 10:59:20;;;;;;;5.63;3.30;;;;;;;13.38;96.15;102955.16;4952098;28;20529;-61
2022/03/19 11:01:49;;;;;;;8.82;3.33;;;;;;;13.38;89.90;102941.84;4946844;28;20460;-57
2022/03/19 11:04:14;;;;;;;7.00;3.22;;;;;;;13.31;93.42;102942.41;4947081;28;20043;-62
2022/03/19 11:06:43;;;;;;;7.82;3.70;;;;;;;13.49;86.46;102929.13;4955982;28;20062;-59
2022/03/19 11:09:11;;;;;;;6.68;3.45;;;;;;;13.73;87.26;102944.53;4955494;28;20109;-63
2022/03/19 11:11:49;;;;;;;8.20;5.20;;;;;;;13.82;86.29;102931.28;4957123;28;20027;-62
2022/03/19 11:14:22;;;;;;;5.07;3.47;;;;;;;13.89;84.16;102925.19;4963842;28;20030;-65
2022/03/19 11:17:23;;;;;;;7.70;4.05;;;;;;;14.04;85.11;102933.44;4950002;28;20157;-62
2022/03/19 11:19:38;;;;;;;8.35;3.25;;;;;;;14.17;81.64;102936.59;4958579;28;20516;-55
2022/03/19 11:22:04;;;;;;;7.88;3.03;;;;;;;14.02;81.54;102924.78;4958430;28;20760;-55
2022/03/19 11:24:32;;;;;;;6.88;3.35;;;;;;;14.17;77.50;102923.25;4951758;28;20035;-57
2022/03/19 11:27:00;;;;;;;7.03;2.97;;;;;;;14.27;77.12;102930.31;4961585;28;20034;-61
2022/03/19 11:29:27;;;;;;;9.00;3.60;;;;;;;14.15;75.52;102927.91;4953578;28;20031;-61